sensor_id;sensor_type;location;lat;lon;timestamp;P1;durP1;ratioP1;P2;durP2;ratioP2
23567;SDS011;11962;50.838;4.430;2023-04-19T00:01:38;28.52;;;22.15;;
23567;SDS011;11962;50.838;4.430;2023-04-19T00:04:05;30.80;;;21.98;;
23567;SDS011;11962;50.838;4.430;2023-04-19T00:06:32;28.75;;;21.40;;
23567;SDS011;11962;50.838;4.430;2023-04-19T00:08:59;28.88;;;22.00;;
23567;SDS011;11962;50.838;4.430;2023-04-19T00:11:24;30.33;;;22.83;;
23567;SDS011;11962;50.838;4.430;2023-04-19T00:13:50;30.23;;;21.52;;
23567;SDS011;11962;50.838;4.430;2023-04-19T00:16:16;30.45;;;22.05;;
23567;SDS011;11962;50.838;4.430;2023-04-19T00:18:42;30.33;;;21.58;;
23567;SDS011;11962;50.838;4.430;2023-04-19T00:21:07;31.10;;;22.95;;
23567;SDS011;11962;50.838;4.430;2023-04-19T00:23:33;29.35;;;22.50;;
23567;SDS011;11962;50.838;4.430;2023-04-19T00:26:02;32.17;;;22.55;;
23567;SDS011;11962;50.838;4.430;2023-04-19T00:28:28;30.75;;;22.58;;
23567;SDS011;11962;50.838;4.430;2023-04-19T00:30:55;33.28;;;22.42;;
23567;SDS011;11962;50.838;4.430;2023-04-19T00:33:21;30.15;;;22.33;;
23567;SDS011;11962;50.838;4.430;2023-04-19T00:35:46;29.05;;;21.90;;
23567;SDS011;11962;50.838;4.430;2023-04-19T00:38:12;28.17;;;21.70;;
23567;SDS011;11962;50.838;4.430;2023-04-19T00:40:38;30.65;;;22.95;;
23567;SDS011;11962;50.838;4.430;2023-04-19T00:43:04;30.10;;;22.70;;
23567;SDS011;11962;50.838;4.430;2023-04-19T00:45:30;32.22;;;23.02;;
23567;SDS011;11962;50.838;4.430;2023-04-19T00:47:56;29.40;;;21.98;;
23567;SDS011;11962;50.838;4.430;2023-04-19T00:50:22;29.08;;;21.45;;
23567;SDS011;11962;50.838;4.430;2023-04-19T00:52:48;37.63;;;22.48;;
23567;SDS011;11962;50.838;4.430;2023-04-19T00:55:16;29.60;;;22.35;;
23567;SDS011;11962;50.838;4.430;2023-04-19T00:57:41;28.83;;;21.95;;
23567;SDS011;11962;50.838;4.430;2023-04-19T01:00:08;34.30;;;23.30;;
23567;SDS011;11962;50.838;4.430;2023-04-19T01:02:34;31.60;;;22.98;;
23567;SDS011;11962;50.838;4.430;2023-04-19T01:05:00;31.98;;;22.80;;
23567;SDS011;11962;50.838;4.430;2023-04-19T01:07:26;33.13;;;23.77;;
23567;SDS011;11962;50.838;4.430;2023-04-19T01:09:52;31.83;;;23.25;;
23567;SDS011;11962;50.838;4.430;2023-04-19T01:12:18;33.08;;;24.25;;
23567;SDS011;11962;50.838;4.430;2023-04-19T01:14:44;32.33;;;24.55;;
23567;SDS011;11962;50.838;4.430;2023-04-19T01:17:09;30.13;;;23.08;;
23567;SDS011;11962;50.838;4.430;2023-04-19T01:19:37;33.47;;;23.43;;
23567;SDS011;11962;50.838;4.430;2023-04-19T01:22:03;35.90;;;24.75;;
23567;SDS011;11962;50.838;4.430;2023-04-19T01:24:30;33.17;;;23.50;;
23567;SDS011;11962;50.838;4.430;2023-04-19T01:27:08;33.45;;;23.67;;
23567;SDS011;11962;50.838;4.430;2023-04-19T01:29:34;33.28;;;24.52;;
23567;SDS011;11962;50.838;4.430;2023-04-19T01:32:00;33.17;;;24.40;;
23567;SDS011;11962;50.838;4.430;2023-04-19T01:34:25;35.65;;;24.42;;
23567;SDS011;11962;50.838;4.430;2023-04-19T01:36:51;34.92;;;25.08;;
23567;SDS011;11962;50.838;4.430;2023-04-19T01:39:17;33.08;;;23.50;;
23567;SDS011;11962;50.838;4.430;2023-04-19T01:41:43;32.47;;;23.58;;
23567;SDS011;11962;50.838;4.430;2023-04-19T01:44:08;33.40;;;24.00;;
23567;SDS011;11962;50.838;4.430;2023-04-19T01:46:34;31.85;;;23.80;;
23567;SDS011;11962;50.838;4.430;2023-04-19T01:49:02;34.47;;;25.50;;
23567;SDS011;11962;50.838;4.430;2023-04-19T01:51:28;33.17;;;23.75;;
23567;SDS011;11962;50.838;4.430;2023-04-19T01:53:54;33.13;;;23.58;;
23567;SDS011;11962;50.838;4.430;2023-04-19T01:56:21;33.65;;;24.33;;
23567;SDS011;11962;50.838;4.430;2023-04-19T01:58:46;30.38;;;22.58;;
23567;SDS011;11962;50.838;4.430;2023-04-19T02:01:12;30.27;;;23.13;;
23567;SDS011;11962;50.838;4.430;2023-04-19T02:03:38;33.72;;;24.45;;
23567;SDS011;11962;50.838;4.430;2023-04-19T02:06:04;35.17;;;22.65;;
23567;SDS011;11962;50.838;4.430;2023-04-19T02:08:30;30.85;;;23.30;;
23567;SDS011;11962;50.838;4.430;2023-04-19T02:10:56;32.13;;;23.77;;
23567;SDS011;11962;50.838;4.430;2023-04-19T02:13:22;30.92;;;22.27;;
23567;SDS011;11962;50.838;4.430;2023-04-19T02:15:47;32.42;;;23.13;;
23567;SDS011;11962;50.838;4.430;2023-04-19T02:18:13;31.05;;;22.90;;
23567;SDS011;11962;50.838;4.430;2023-04-19T02:20:41;30.13;;;22.35;;
23567;SDS011;11962;50.838;4.430;2023-04-19T02:23:07;30.35;;;22.95;;
23567;SDS011;11962;50.838;4.430;2023-04-19T02:25:33;29.27;;;21.92;;
23567;SDS011;11962;50.838;4.430;2023-04-19T02:27:58;28.95;;;21.15;;
23567;SDS011;11962;50.838;4.430;2023-04-19T02:30:24;32.72;;;22.10;;
23567;SDS011;11962;50.838;4.430;2023-04-19T02:32:50;32.35;;;22.50;;
23567;SDS011;11962;50.838;4.430;2023-04-19T02:35:16;30.73;;;22.27;;
23567;SDS011;11962;50.838;4.430;2023-04-19T02:37:42;28.65;;;22.42;;
23567;SDS011;11962;50.838;4.430;2023-04-19T02:40:08;28.63;;;22.17;;
23567;SDS011;11962;50.838;4.430;2023-04-19T02:42:34;29.85;;;22.55;;
23567;SDS011;11962;50.838;4.430;2023-04-19T02:45:00;30.42;;;22.55;;
23567;SDS011;11962;50.838;4.430;2023-04-19T02:47:26;28.65;;;21.42;;
23567;SDS011;11962;50.838;4.430;2023-04-19T02:49:51;33.03;;;21.75;;
23567;SDS011;11962;50.838;4.430;2023-04-19T02:52:17;31.75;;;22.30;;
23567;SDS011;11962;50.838;4.430;2023-04-19T02:54:43;26.75;;;20.45;;
23567;SDS011;11962;50.838;4.430;2023-04-19T02:57:09;29.33;;;22.00;;
23567;SDS011;11962;50.838;4.430;2023-04-19T02:59:35;31.08;;;21.90;;
23567;SDS011;11962;50.838;4.430;2023-04-19T03:02:00;26.77;;;20.85;;
23567;SDS011;11962;50.838;4.430;2023-04-19T03:04:26;29.15;;;21.17;;
23567;SDS011;11962;50.838;4.430;2023-04-19T03:06:52;29.10;;;21.20;;
23567;SDS011;11962;50.838;4.430;2023-04-19T03:09:18;27.88;;;20.25;;
23567;SDS011;11962;50.838;4.430;2023-04-19T03:11:44;26.50;;;19.88;;
23567;SDS011;11962;50.838;4.430;2023-04-19T03:14:10;27.05;;;20.10;;
23567;SDS011;11962;50.838;4.430;2023-04-19T03:16:35;26.25;;;20.00;;
23567;SDS011;11962;50.838;4.430;2023-04-19T03:19:02;26.05;;;19.77;;
23567;SDS011;11962;50.838;4.430;2023-04-19T03:21:28;27.60;;;21.25;;
23567;SDS011;11962;50.838;4.430;2023-04-19T03:23:54;27.13;;;20.55;;
23567;SDS011;11962;50.838;4.430;2023-04-19T03:26:20;26.88;;;19.83;;
23567;SDS011;11962;50.838;4.430;2023-04-19T03:31:41;26.30;;;19.80;;
23567;SDS011;11962;50.838;4.430;2023-04-19T03:34:07;27.80;;;19.25;;
23567;SDS011;11962;50.838;4.430;2023-04-19T03:36:33;26.80;;;19.65;;
23567;SDS011;11962;50.838;4.430;2023-04-19T03:38:59;24.95;;;18.80;;
23567;SDS011;11962;50.838;4.430;2023-04-19T03:41:26;27.58;;;21.13;;
23567;SDS011;11962;50.838;4.430;2023-04-19T03:43:52;29.63;;;20.02;;
23567;SDS011;11962;50.838;4.430;2023-04-19T03:46:18;27.65;;;20.77;;
23567;SDS011;11962;50.838;4.430;2023-04-19T03:48:43;27.52;;;20.52;;
23567;SDS011;11962;50.838;4.430;2023-04-19T03:54:00;29.10;;;21.05;;
23567;SDS011;11962;50.838;4.430;2023-04-19T03:56:26;27.33;;;20.30;;
23567;SDS011;11962;50.838;4.430;2023-04-19T03:58:51;26.88;;;20.88;;
23567;SDS011;11962;50.838;4.430;2023-04-19T04:01:18;27.50;;;20.40;;
23567;SDS011;11962;50.838;4.430;2023-04-19T04:03:44;27.83;;;21.15;;
23567;SDS011;11962;50.838;4.430;2023-04-19T04:06:10;26.88;;;20.88;;
23567;SDS011;11962;50.838;4.430;2023-04-19T04:08:36;27.00;;;20.33;;
23567;SDS011;11962;50.838;4.430;2023-04-19T04:11:02;30.35;;;21.42;;
23567;SDS011;11962;50.838;4.430;2023-04-19T04:13:28;29.88;;;20.52;;
23567;SDS011;11962;50.838;4.430;2023-04-19T04:15:53;32.83;;;20.70;;
23567;SDS011;11962;50.838;4.430;2023-04-19T04:18:19;30.10;;;20.95;;
23567;SDS011;11962;50.838;4.430;2023-04-19T04:20:45;29.65;;;20.73;;
23567;SDS011;11962;50.838;4.430;2023-04-19T04:23:10;28.95;;;20.15;;
23567;SDS011;11962;50.838;4.430;2023-04-19T04:25:36;31.52;;;21.75;;
23567;SDS011;11962;50.838;4.430;2023-04-19T04:28:03;31.30;;;22.42;;
23567;SDS011;11962;50.838;4.430;2023-04-19T04:30:29;27.77;;;20.80;;
23567;SDS011;11962;50.838;4.430;2023-04-19T04:32:55;29.10;;;22.10;;
23567;SDS011;11962;50.838;4.430;2023-04-19T04:35:22;28.55;;;20.17;;
23567;SDS011;11962;50.838;4.430;2023-04-19T04:37:48;31.80;;;22.38;;
23567;SDS011;11962;50.838;4.430;2023-04-19T04:40:14;31.65;;;21.15;;
23567;SDS011;11962;50.838;4.430;2023-04-19T04:42:40;30.35;;;21.35;;
23567;SDS011;11962;50.838;4.430;2023-04-19T04:45:07;30.60;;;21.98;;
23567;SDS011;11962;50.838;4.430;2023-04-19T04:47:35;30.90;;;22.33;;
23567;SDS011;11962;50.838;4.430;2023-04-19T04:50:01;29.55;;;20.92;;
23567;SDS011;11962;50.838;4.430;2023-04-19T04:52:27;31.10;;;21.65;;
23567;SDS011;11962;50.838;4.430;2023-04-19T04:54:53;31.15;;;21.55;;
23567;SDS011;11962;50.838;4.430;2023-04-19T04:57:19;29.98;;;21.40;;
23567;SDS011;11962;50.838;4.430;2023-04-19T04:59:45;31.33;;;22.05;;
23567;SDS011;11962;50.838;4.430;2023-04-19T05:02:13;33.30;;;22.05;;
23567;SDS011;11962;50.838;4.430;2023-04-19T05:04:39;31.67;;;21.70;;
23567;SDS011;11962;50.838;4.430;2023-04-19T05:07:05;31.73;;;21.10;;
23567;SDS011;11962;50.838;4.430;2023-04-19T05:09:34;35.88;;;22.17;;
23567;SDS011;11962;50.838;4.430;2023-04-19T05:11:59;30.05;;;21.08;;
23567;SDS011;11962;50.838;4.430;2023-04-19T05:14:26;32.17;;;21.45;;
23567;SDS011;11962;50.838;4.430;2023-04-19T05:16:52;33.00;;;20.92;;
23567;SDS011;11962;50.838;4.430;2023-04-19T05:19:17;35.40;;;21.92;;
23567;SDS011;11962;50.838;4.430;2023-04-19T05:21:43;33.55;;;21.13;;
23567;SDS011;11962;50.838;4.430;2023-04-19T05:24:09;31.95;;;21.67;;
23567;SDS011;11962;50.838;4.430;2023-04-19T05:26:35;30.90;;;21.67;;
23567;SDS011;11962;50.838;4.430;2023-04-19T05:29:00;29.95;;;21.48;;
23567;SDS011;11962;50.838;4.430;2023-04-19T05:31:26;33.20;;;22.10;;
23567;SDS011;11962;50.838;4.430;2023-04-19T05:33:52;29.85;;;20.60;;
23567;SDS011;11962;50.838;4.430;2023-04-19T05:36:18;31.73;;;21.10;;
23567;SDS011;11962;50.838;4.430;2023-04-19T05:38:44;34.10;;;21.67;;
23567;SDS011;11962;50.838;4.430;2023-04-19T05:41:09;30.85;;;21.05;;
23567;SDS011;11962;50.838;4.430;2023-04-19T05:43:36;29.27;;;21.23;;
23567;SDS011;11962;50.838;4.430;2023-04-19T05:46:02;29.88;;;21.25;;
23567;SDS011;11962;50.838;4.430;2023-04-19T05:48:27;33.72;;;22.50;;
23567;SDS011;11962;50.838;4.430;2023-04-19T05:50:53;34.80;;;22.83;;
23567;SDS011;11962;50.838;4.430;2023-04-19T05:53:21;31.50;;;22.05;;
23567;SDS011;11962;50.838;4.430;2023-04-19T05:55:47;31.23;;;22.30;;
23567;SDS011;11962;50.838;4.430;2023-04-19T05:58:14;34.05;;;21.60;;
23567;SDS011;11962;50.838;4.430;2023-04-19T06:00:40;30.60;;;21.70;;
23567;SDS011;11962;50.838;4.430;2023-04-19T06:03:06;31.08;;;21.60;;
23567;SDS011;11962;50.838;4.430;2023-04-19T06:05:32;30.20;;;21.65;;
23567;SDS011;11962;50.838;4.430;2023-04-19T06:07:58;32.45;;;22.02;;
23567;SDS011;11962;50.838;4.430;2023-04-19T06:10:24;30.17;;;21.48;;
23567;SDS011;11962;50.838;4.430;2023-04-19T06:12:50;29.70;;;21.33;;
23567;SDS011;11962;50.838;4.430;2023-04-19T06:15:16;32.22;;;21.00;;
23567;SDS011;11962;50.838;4.430;2023-04-19T06:20:38;32.33;;;20.80;;
23567;SDS011;11962;50.838;4.430;2023-04-19T06:23:05;30.95;;;20.88;;
23567;SDS011;11962;50.838;4.430;2023-04-19T06:25:31;32.20;;;19.77;;
23567;SDS011;11962;50.838;4.430;2023-04-19T06:28:00;26.27;;;19.15;;
23567;SDS011;11962;50.838;4.430;2023-04-19T06:30:26;27.77;;;19.63;;
23567;SDS011;11962;50.838;4.430;2023-04-19T06:32:51;28.83;;;19.50;;
23567;SDS011;11962;50.838;4.430;2023-04-19T06:35:17;31.20;;;20.00;;
23567;SDS011;11962;50.838;4.430;2023-04-19T06:37:46;26.83;;;18.83;;
23567;SDS011;11962;50.838;4.430;2023-04-19T06:40:12;26.65;;;18.40;;
23567;SDS011;11962;50.838;4.430;2023-04-19T06:42:38;26.35;;;17.98;;
23567;SDS011;11962;50.838;4.430;2023-04-19T06:45:05;28.98;;;18.73;;
23567;SDS011;11962;50.838;4.430;2023-04-19T06:47:31;27.90;;;18.20;;
23567;SDS011;11962;50.838;4.430;2023-04-19T06:49:57;24.88;;;17.55;;
23567;SDS011;11962;50.838;4.430;2023-04-19T06:52:23;23.90;;;17.63;;
23567;SDS011;11962;50.838;4.430;2023-04-19T06:54:49;23.67;;;16.50;;
23567;SDS011;11962;50.838;4.430;2023-04-19T06:57:24;23.85;;;15.23;;
23567;SDS011;11962;50.838;4.430;2023-04-19T06:59:54;21.33;;;15.35;;
23567;SDS011;11962;50.838;4.430;2023-04-19T07:02:40;21.88;;;15.00;;
23567;SDS011;11962;50.838;4.430;2023-04-19T07:05:19;21.83;;;14.90;;
23567;SDS011;11962;50.838;4.430;2023-04-19T07:07:45;21.67;;;15.00;;
23567;SDS011;11962;50.838;4.430;2023-04-19T07:10:14;18.10;;;14.15;;
23567;SDS011;11962;50.838;4.430;2023-04-19T07:12:40;21.42;;;13.65;;
23567;SDS011;11962;50.838;4.430;2023-04-19T07:15:06;18.02;;;13.18;;
23567;SDS011;11962;50.838;4.430;2023-04-19T07:17:33;16.90;;;12.50;;
23567;SDS011;11962;50.838;4.430;2023-04-19T07:20:00;16.02;;;12.05;;
23567;SDS011;11962;50.838;4.430;2023-04-19T07:22:25;16.42;;;12.15;;
23567;SDS011;11962;50.838;4.430;2023-04-19T07:24:52;16.38;;;12.18;;
23567;SDS011;11962;50.838;4.430;2023-04-19T07:27:18;15.90;;;11.93;;
23567;SDS011;11962;50.838;4.430;2023-04-19T07:29:44;17.15;;;12.30;;
23567;SDS011;11962;50.838;4.430;2023-04-19T07:32:10;15.52;;;12.55;;
23567;SDS011;11962;50.838;4.430;2023-04-19T07:34:37;26.90;;;11.67;;
23567;SDS011;11962;50.838;4.430;2023-04-19T07:37:05;13.63;;;11.57;;
23567;SDS011;11962;50.838;4.430;2023-04-19T07:39:31;14.50;;;11.23;;
23567;SDS011;11962;50.838;4.430;2023-04-19T07:41:57;13.45;;;10.95;;
23567;SDS011;11962;50.838;4.430;2023-04-19T07:44:25;16.13;;;11.27;;
23567;SDS011;11962;50.838;4.430;2023-04-19T07:46:51;11.63;;;9.73;;
23567;SDS011;11962;50.838;4.430;2023-04-19T07:49:17;12.90;;;10.75;;
23567;SDS011;11962;50.838;4.430;2023-04-19T07:51:42;10.98;;;9.77;;
23567;SDS011;11962;50.838;4.430;2023-04-19T07:54:08;15.20;;;10.60;;
23567;SDS011;11962;50.838;4.430;2023-04-19T07:56:34;12.70;;;10.63;;
23567;SDS011;11962;50.838;4.430;2023-04-19T07:59:00;12.82;;;10.15;;
23567;SDS011;11962;50.838;4.430;2023-04-19T08:01:26;13.93;;;10.20;;
23567;SDS011;11962;50.838;4.430;2023-04-19T08:03:53;10.35;;;9.25;;
23567;SDS011;11962;50.838;4.430;2023-04-19T08:06:19;15.85;;;10.02;;
23567;SDS011;11962;50.838;4.430;2023-04-19T08:08:45;12.93;;;9.47;;
23567;SDS011;11962;50.838;4.430;2023-04-19T08:11:12;16.60;;;8.90;;
23567;SDS011;11962;50.838;4.430;2023-04-19T08:13:37;9.35;;;8.32;;
23567;SDS011;11962;50.838;4.430;2023-04-19T08:16:03;11.55;;;8.68;;
23567;SDS011;11962;50.838;4.430;2023-04-19T08:18:30;12.30;;;9.10;;
23567;SDS011;11962;50.838;4.430;2023-04-19T08:20:56;10.80;;;9.32;;
23567;SDS011;11962;50.838;4.430;2023-04-19T08:23:22;10.85;;;8.57;;
23567;SDS011;11962;50.838;4.430;2023-04-19T08:25:48;13.32;;;8.98;;
23567;SDS011;11962;50.838;4.430;2023-04-19T08:28:13;11.10;;;8.73;;
23567;SDS011;11962;50.838;4.430;2023-04-19T08:30:39;12.30;;;9.07;;
23567;SDS011;11962;50.838;4.430;2023-04-19T08:33:05;13.73;;;9.48;;
23567;SDS011;11962;50.838;4.430;2023-04-19T08:35:32;11.32;;;9.63;;
23567;SDS011;11962;50.838;4.430;2023-04-19T08:38:00;13.15;;;9.68;;
23567;SDS011;11962;50.838;4.430;2023-04-19T08:40:26;11.50;;;9.00;;
23567;SDS011;11962;50.838;4.430;2023-04-19T08:42:55;10.45;;;9.20;;
23567;SDS011;11962;50.838;4.430;2023-04-19T08:45:22;17.60;;;9.80;;
23567;SDS011;11962;50.838;4.430;2023-04-19T08:47:52;10.55;;;9.30;;
23567;SDS011;11962;50.838;4.430;2023-04-19T08:50:19;11.65;;;9.48;;
23567;SDS011;11962;50.838;4.430;2023-04-19T08:52:48;11.98;;;8.98;;
23567;SDS011;11962;50.838;4.430;2023-04-19T08:55:14;9.98;;;8.90;;
23567;SDS011;11962;50.838;4.430;2023-04-19T08:57:40;11.05;;;9.07;;
23567;SDS011;11962;50.838;4.430;2023-04-19T09:00:06;11.23;;;8.35;;
23567;SDS011;11962;50.838;4.430;2023-04-19T09:02:44;10.07;;;8.27;;
23567;SDS011;11962;50.838;4.430;2023-04-19T09:05:12;10.75;;;8.73;;
23567;SDS011;11962;50.838;4.430;2023-04-19T09:07:38;9.18;;;8.13;;
23567;SDS011;11962;50.838;4.430;2023-04-19T09:10:05;10.63;;;8.13;;
23567;SDS011;11962;50.838;4.430;2023-04-19T09:15:02;9.77;;;7.65;;
23567;SDS011;11962;50.838;4.430;2023-04-19T09:17:30;9.82;;;7.10;;
23567;SDS011;11962;50.838;4.430;2023-04-19T09:19:56;9.30;;;7.63;;
23567;SDS011;11962;50.838;4.430;2023-04-19T09:22:23;8.75;;;7.22;;
23567;SDS011;11962;50.838;4.430;2023-04-19T09:24:49;8.70;;;7.35;;
23567;SDS011;11962;50.838;4.430;2023-04-19T09:27:24;9.45;;;7.47;;
23567;SDS011;11962;50.838;4.430;2023-04-19T09:29:58;8.05;;;7.25;;
23567;SDS011;11962;50.838;4.430;2023-04-19T09:34:54;11.50;;;8.32;;
23567;SDS011;11962;50.838;4.430;2023-04-19T09:37:22;12.15;;;7.93;;
23567;SDS011;11962;50.838;4.430;2023-04-19T09:39:49;10.20;;;7.55;;
23567;SDS011;11962;50.838;4.430;2023-04-19T09:42:15;9.05;;;7.70;;
23567;SDS011;11962;50.838;4.430;2023-04-19T09:44:59;8.52;;;7.55;;
23567;SDS011;11962;50.838;4.430;2023-04-19T09:47:26;9.07;;;7.68;;
23567;SDS011;11962;50.838;4.430;2023-04-19T09:50:09;9.05;;;7.45;;
23567;SDS011;11962;50.838;4.430;2023-04-19T09:52:36;9.15;;;7.65;;
23567;SDS011;11962;50.838;4.430;2023-04-19T09:55:03;8.45;;;6.68;;
23567;SDS011;11962;50.838;4.430;2023-04-19T09:57:31;10.50;;;7.13;;
23567;SDS011;11962;50.838;4.430;2023-04-19T09:59:58;8.48;;;6.93;;
23567;SDS011;11962;50.838;4.430;2023-04-19T10:02:25;7.78;;;6.82;;
23567;SDS011;11962;50.838;4.430;2023-04-19T10:04:55;6.85;;;6.15;;
23567;SDS011;11962;50.838;4.430;2023-04-19T10:07:22;7.40;;;6.07;;
23567;SDS011;11962;50.838;4.430;2023-04-19T10:09:49;11.47;;;6.17;;
23567;SDS011;11962;50.838;4.430;2023-04-19T10:12:18;8.10;;;6.70;;
23567;SDS011;11962;50.838;4.430;2023-04-19T10:14:45;7.07;;;6.38;;
23567;SDS011;11962;50.838;4.430;2023-04-19T10:17:11;7.80;;;6.05;;
23567;SDS011;11962;50.838;4.430;2023-04-19T10:19:37;9.10;;;6.18;;
23567;SDS011;11962;50.838;4.430;2023-04-19T10:22:05;6.78;;;5.68;;
23567;SDS011;11962;50.838;4.430;2023-04-19T10:24:32;6.90;;;5.30;;
23567;SDS011;11962;50.838;4.430;2023-04-19T10:35:21;6.90;;;5.47;;
23567;SDS011;11962;50.838;4.430;2023-04-19T10:43:17;8.32;;;5.25;;
23567;SDS011;11962;50.838;4.430;2023-04-19T10:45:44;6.20;;;5.23;;
23567;SDS011;11962;50.838;4.430;2023-04-19T10:51:18;8.52;;;6.22;;
23567;SDS011;11962;50.838;4.430;2023-04-19T11:04:23;8.27;;;5.45;;
23567;SDS011;11962;50.838;4.430;2023-04-19T11:09:39;9.23;;;6.75;;
23567;SDS011;11962;50.838;4.430;2023-04-19T11:12:16;7.32;;;6.38;;
23567;SDS011;11962;50.838;4.430;2023-04-19T11:17:19;9.15;;;6.32;;
23567;SDS011;11962;50.838;4.430;2023-04-19T11:22:17;7.03;;;6.25;;
23567;SDS011;11962;50.838;4.430;2023-04-19T11:24:46;11.00;;;6.82;;
23567;SDS011;11962;50.838;4.430;2023-04-19T11:27:12;8.43;;;5.88;;
23567;SDS011;11962;50.838;4.430;2023-04-19T11:29:38;7.65;;;6.72;;
23567;SDS011;11962;50.838;4.430;2023-04-19T11:32:04;12.38;;;7.05;;
23567;SDS011;11962;50.838;4.430;2023-04-19T11:34:34;8.18;;;6.25;;
23567;SDS011;11962;50.838;4.430;2023-04-19T11:37:01;10.63;;;6.70;;
23567;SDS011;11962;50.838;4.430;2023-04-19T11:39:27;9.75;;;5.82;;
23567;SDS011;11962;50.838;4.430;2023-04-19T11:41:52;8.60;;;6.53;;
23567;SDS011;11962;50.838;4.430;2023-04-19T11:44:18;10.75;;;6.57;;
23567;SDS011;11962;50.838;4.430;2023-04-19T11:47:01;7.72;;;6.50;;
23567;SDS011;11962;50.838;4.430;2023-04-19T11:49:28;9.35;;;7.32;;
23567;SDS011;11962;50.838;4.430;2023-04-19T11:51:56;12.50;;;6.95;;
23567;SDS011;11962;50.838;4.430;2023-04-19T11:54:23;8.93;;;6.43;;
23567;SDS011;11962;50.838;4.430;2023-04-19T11:57:03;9.35;;;7.05;;
23567;SDS011;11962;50.838;4.430;2023-04-19T11:59:33;9.20;;;7.05;;
23567;SDS011;11962;50.838;4.430;2023-04-19T12:02:09;10.63;;;7.80;;
23567;SDS011;11962;50.838;4.430;2023-04-19T12:04:36;9.63;;;7.40;;
23567;SDS011;11962;50.838;4.430;2023-04-19T12:07:03;10.35;;;6.50;;
23567;SDS011;11962;50.838;4.430;2023-04-19T12:09:31;9.23;;;6.90;;
23567;SDS011;11962;50.838;4.430;2023-04-19T12:11:59;11.80;;;6.60;;
23567;SDS011;11962;50.838;4.430;2023-04-19T12:14:26;9.77;;;6.30;;
23567;SDS011;11962;50.838;4.430;2023-04-19T12:17:11;9.02;;;7.15;;
23567;SDS011;11962;50.838;4.430;2023-04-19T12:19:45;8.68;;;6.85;;
23567;SDS011;11962;50.838;4.430;2023-04-19T12:22:15;11.90;;;6.82;;
23567;SDS011;11962;50.838;4.430;2023-04-19T12:24:51;8.68;;;6.72;;
23567;SDS011;11962;50.838;4.430;2023-04-19T12:27:18;9.70;;;7.20;;
23567;SDS011;11962;50.838;4.430;2023-04-19T12:29:43;9.40;;;6.85;;
23567;SDS011;11962;50.838;4.430;2023-04-19T12:32:10;12.10;;;6.85;;
23567;SDS011;11962;50.838;4.430;2023-04-19T12:34:36;10.80;;;7.15;;
23567;SDS011;11962;50.838;4.430;2023-04-19T12:37:01;10.25;;;5.88;;
23567;SDS011;11962;50.838;4.430;2023-04-19T12:39:30;10.27;;;6.22;;
23567;SDS011;11962;50.838;4.430;2023-04-19T12:41:56;8.07;;;5.80;;
23567;SDS011;11962;50.838;4.430;2023-04-19T12:44:21;8.43;;;6.28;;
23567;SDS011;11962;50.838;4.430;2023-04-19T12:46:48;8.10;;;5.85;;
23567;SDS011;11962;50.838;4.430;2023-04-19T12:49:16;10.55;;;6.47;;
23567;SDS011;11962;50.838;4.430;2023-04-19T12:51:43;9.38;;;6.28;;
23567;SDS011;11962;50.838;4.430;2023-04-19T12:54:11;10.10;;;6.45;;
23567;SDS011;11962;50.838;4.430;2023-04-19T12:56:37;9.43;;;6.32;;
23567;SDS011;11962;50.838;4.430;2023-04-19T12:59:03;8.93;;;5.93;;
23567;SDS011;11962;50.838;4.430;2023-04-19T13:01:30;7.53;;;6.00;;
23567;SDS011;11962;50.838;4.430;2023-04-19T13:03:56;9.07;;;5.28;;
23567;SDS011;11962;50.838;4.430;2023-04-19T13:06:22;9.68;;;5.78;;
23567;SDS011;11962;50.838;4.430;2023-04-19T13:08:48;8.93;;;5.20;;
23567;SDS011;11962;50.838;4.430;2023-04-19T13:11:14;9.30;;;5.72;;
23567;SDS011;11962;50.838;4.430;2023-04-19T13:13:46;9.30;;;5.18;;
23567;SDS011;11962;50.838;4.430;2023-04-19T13:16:12;9.05;;;5.43;;
23567;SDS011;11962;50.838;4.430;2023-04-19T13:18:38;10.60;;;5.47;;
23567;SDS011;11962;50.838;4.430;2023-04-19T13:21:04;10.93;;;5.07;;
23567;SDS011;11962;50.838;4.430;2023-04-19T13:23:30;10.27;;;5.57;;
23567;SDS011;11962;50.838;4.430;2023-04-19T13:25:55;10.57;;;4.75;;
23567;SDS011;11962;50.838;4.430;2023-04-19T13:28:21;5.55;;;4.30;;
23567;SDS011;11962;50.838;4.430;2023-04-19T13:30:47;6.57;;;4.65;;
23567;SDS011;11962;50.838;4.430;2023-04-19T13:33:13;9.30;;;4.43;;
23567;SDS011;11962;50.838;4.430;2023-04-19T13:35:39;11.02;;;4.78;;
23567;SDS011;11962;50.838;4.430;2023-04-19T13:38:05;9.38;;;4.80;;
23567;SDS011;11962;50.838;4.430;2023-04-19T13:40:31;20.52;;;4.88;;
23567;SDS011;11962;50.838;4.430;2023-04-19T13:42:56;10.07;;;5.03;;
23567;SDS011;11962;50.838;4.430;2023-04-19T13:45:22;13.32;;;4.78;;
23567;SDS011;11962;50.838;4.430;2023-04-19T13:47:48;7.32;;;5.43;;
23567;SDS011;11962;50.838;4.430;2023-04-19T13:50:14;8.52;;;5.10;;
23567;SDS011;11962;50.838;4.430;2023-04-19T13:52:40;9.35;;;4.70;;
23567;SDS011;11962;50.838;4.430;2023-04-19T13:55:06;6.97;;;4.97;;
23567;SDS011;11962;50.838;4.430;2023-04-19T13:57:32;10.30;;;4.38;;
23567;SDS011;11962;50.838;4.430;2023-04-19T13:59:57;6.50;;;3.90;;
23567;SDS011;11962;50.838;4.430;2023-04-19T14:02:23;6.03;;;3.70;;
23567;SDS011;11962;50.838;4.430;2023-04-19T14:04:49;5.47;;;3.95;;
23567;SDS011;11962;50.838;4.430;2023-04-19T14:07:15;7.30;;;3.97;;
23567;SDS011;11962;50.838;4.430;2023-04-19T14:09:41;6.85;;;3.58;;
23567;SDS011;11962;50.838;4.430;2023-04-19T14:12:06;6.00;;;3.30;;
23567;SDS011;11962;50.838;4.430;2023-04-19T14:14:33;4.07;;;2.60;;
23567;SDS011;11962;50.838;4.430;2023-04-19T14:16:58;5.20;;;2.78;;
23567;SDS011;11962;50.838;4.430;2023-04-19T14:19:24;8.93;;;2.85;;
23567;SDS011;11962;50.838;4.430;2023-04-19T14:21:50;6.10;;;2.58;;
23567;SDS011;11962;50.838;4.430;2023-04-19T14:24:16;4.25;;;2.40;;
23567;SDS011;11962;50.838;4.430;2023-04-19T14:26:42;6.18;;;2.72;;
23567;SDS011;11962;50.838;4.430;2023-04-19T14:29:07;3.95;;;2.70;;
23567;SDS011;11962;50.838;4.430;2023-04-19T14:31:33;5.13;;;2.97;;
23567;SDS011;11962;50.838;4.430;2023-04-19T14:33:59;3.65;;;2.30;;
23567;SDS011;11962;50.838;4.430;2023-04-19T14:36:25;6.78;;;2.50;;
23567;SDS011;11962;50.838;4.430;2023-04-19T14:38:51;6.40;;;2.47;;
23567;SDS011;11962;50.838;4.430;2023-04-19T14:41:16;3.17;;;2.30;;
23567;SDS011;11962;50.838;4.430;2023-04-19T14:43:42;3.35;;;2.20;;
23567;SDS011;11962;50.838;4.430;2023-04-19T14:46:08;4.70;;;2.45;;
23567;SDS011;11962;50.838;4.430;2023-04-19T14:48:34;3.78;;;2.45;;
23567;SDS011;11962;50.838;4.430;2023-04-19T14:51:00;3.78;;;2.60;;
23567;SDS011;11962;50.838;4.430;2023-04-19T14:53:25;6.10;;;2.65;;
23567;SDS011;11962;50.838;4.430;2023-04-19T14:55:51;8.07;;;2.88;;
23567;SDS011;11962;50.838;4.430;2023-04-19T14:58:17;3.53;;;2.70;;
23567;SDS011;11962;50.838;4.430;2023-04-19T15:00:43;6.25;;;3.20;;
23567;SDS011;11962;50.838;4.430;2023-04-19T15:03:08;6.85;;;3.00;;
23567;SDS011;11962;50.838;4.430;2023-04-19T15:05:34;7.20;;;2.83;;
23567;SDS011;11962;50.838;4.430;2023-04-19T15:08:00;5.93;;;2.88;;
23567;SDS011;11962;50.838;4.430;2023-04-19T15:10:26;5.60;;;2.95;;
23567;SDS011;11962;50.838;4.430;2023-04-19T15:12:52;4.97;;;2.72;;
23567;SDS011;11962;50.838;4.430;2023-04-19T15:15:18;3.08;;;2.60;;
23567;SDS011;11962;50.838;4.430;2023-04-19T15:17:43;5.53;;;3.17;;